Time;durP1;ratioP1;P1;durP2;ratioP2;P2;SDS_P1;SDS_P2;PMS_P1;PMS_P2;Temp;Humidity;BMP_temperature;BMP_pressure;BME280_temperature;BME280_humidity;BME280_pressure;Samples;Min_cycle;Max_cycle;Signal;HPM_P1;HPM_P2
2022/01/25 00:08:27;;;;;;;19.20;11.67;;;;;;;-3.51;56.52;101083.09;5052360;28;20200;-59
2022/01/25 00:24:53;;;;;;;20.33;12.57;;;;;;;-3.86;57.88;101087.25;5069913;28;20291;-58
2022/01/25 00:30:22;;;;;;;17.33;11.70;;;;;;;-3.91;58.64;101085.00;5047535;28;20200;-59
2022/01/25 00:32:48;;;;;;;17.57;11.97;;;;;;;-3.86;58.00;101086.34;5049777;28;20197;-59
2022/01/25 00:35:16;;;;;;;16.33;12.07;;;;;;;-3.81;57.81;101093.59;5054599;28;20658;-59
2022/01/25 00:37:43;;;;;;;18.83;12.80;;;;;;;-3.85;57.60;101093.16;5069813;28;20685;-59
2022/01/25 00:40:11;;;;;;;15.60;11.83;;;;;;;-3.80;57.78;101086.94;5069651;28;20201;-59
2022/01/25 00:42:38;;;;;;;18.93;11.60;;;;;;;-3.84;58.07;101095.78;5056196;28;20314;-59
2022/01/25 00:45:08;;;;;;;16.07;11.43;;;;;;;-3.83;57.77;101087.53;5050048;28;20229;-58
2022/01/25 00:47:35;;;;;;;17.53;11.23;;;;;;;-3.85;58.05;101093.16;5055670;28;20203;-59
2022/01/25 00:50:02;;;;;;;13.50;10.90;;;;;;;-3.90;57.85;101087.66;5069640;28;20748;-60
2022/01/25 00:55:11;;;;;;;14.70;10.47;;;;;;;-3.93;57.70;101089.00;5069666;28;20188;-59
2022/01/25 00:57:38;;;;;;;18.47;11.50;;;;;;;-3.90;57.25;101089.31;5069914;28;20234;-59
2022/01/25 01:00:08;;;;;;;16.00;11.20;;;;;;;-3.91;56.85;101093.44;5069761;28;20233;-59
2022/01/25 01:02:34;;;;;;;16.70;11.37;;;;;;;-3.94;57.12;101087.22;5069722;28;20188;-59
2022/01/25 01:05:02;;;;;;;16.37;11.67;;;;;;;-3.97;57.44;101085.31;5069968;28;20222;-59
2022/01/25 01:07:30;;;;;;;15.37;11.90;;;;;;;-4.03;57.45;101071.25;5069835;28;20920;-59
2022/01/25 01:09:59;;;;;;;15.50;11.23;;;;;;;-3.96;57.77;101079.56;5069813;28;20199;-59
2022/01/25 01:12:51;;;;;;;14.57;11.00;;;;;;;-3.88;56.77;101083.69;5069492;28;20289;-58
2022/01/25 01:15:29;;;;;;;17.30;11.17;;;;;;;-3.88;57.19;101080.28;5069328;28;20204;-59
2022/01/25 01:29:12;;;;;;;19.23;11.27;;;;;;;-3.82;56.15;101069.22;5069378;28;20191;-59
2022/01/25 01:31:54;;;;;;;16.20;10.40;;;;;;;-3.89;56.45;101059.31;5069419;28;20192;-60
2022/01/25 01:34:48;;;;;;;16.07;10.23;;;;;;;-3.82;56.44;101074.22;5069449;28;20238;-60
2022/01/25 01:43:00;;;;;;;15.70;10.27;;;;;;;-3.74;55.46;101055.81;5052299;28;20238;-59
2022/01/25 01:45:39;;;;;;;14.80;10.30;;;;;;;-3.73;55.02;101054.16;5052742;28;20225;-59
2022/01/25 01:48:09;;;;;;;16.03;10.70;;;;;;;-3.74;54.82;101054.91;5053264;28;20206;-59
2022/01/25 01:50:37;;;;;;;16.13;10.93;;;;;;;-3.74;55.38;101049.88;5071104;28;20227;-59
2022/01/25 01:53:06;;;;;;;16.83;10.90;;;;;;;-3.78;56.17;101048.69;5072692;28;20656;-59
2022/01/25 01:55:35;;;;;;;20.23;11.60;;;;;;;-3.78;55.80;101053.72;5072553;28;20577;-59
2022/01/25 01:58:03;;;;;;;18.33;11.60;;;;;;;-3.70;55.36;101046.91;5072527;28;20290;-59
2022/01/25 02:00:34;;;;;;;16.57;11.13;;;;;;;-3.75;55.62;101038.06;5072453;28;20192;-59
2022/01/25 02:03:01;;;;;;;14.77;10.53;;;;;;;-3.69;55.56;101046.19;5072347;28;20223;-59
2022/01/25 02:05:30;;;;;;;17.00;10.53;;;;;;;-3.70;55.23;101042.78;5072262;28;20695;-59
2022/01/25 02:07:57;;;;;;;12.93;9.90;;;;;;;-3.66;55.10;101041.47;5072342;28;20193;-59
2022/01/25 02:10:24;;;;;;;19.40;10.53;;;;;;;-3.69;55.39;101036.16;5072332;28;20205;-58
2022/01/25 02:12:53;;;;;;;15.63;11.67;;;;;;;-3.74;55.90;101038.22;5072544;28;20192;-58
2022/01/25 02:15:22;;;;;;;19.20;12.13;;;;;;;-3.82;56.59;101038.22;5072135;28;20224;-58
2022/01/25 02:23:26;;;;;;;17.00;11.00;;;;;;;-3.90;56.21;101036.59;5072199;28;20196;-58
2022/01/25 02:25:55;;;;;;;14.87;10.13;;;;;;;-3.89;56.39;101028.31;5072162;28;20220;-60
2022/01/25 02:28:25;;;;;;;21.53;10.70;;;;;;;-3.95;55.95;101023.56;5072153;28;20230;-59
2022/01/25 02:30:52;;;;;;;16.73;10.27;;;;;;;-3.89;55.57;101023.28;5071007;28;20226;-59
2022/01/25 02:33:20;;;;;;;15.23;10.23;;;;;;;-4.04;56.10;101005.13;5072006;28;20201;-59
2022/01/25 02:35:48;;;;;;;14.23;9.40;;;;;;;-3.85;54.92;101022.84;5071775;28;20294;-60
2022/01/25 02:38:21;;;;;;;13.60;9.03;;;;;;;-3.90;55.19;101017.38;5071815;28;20305;-58
2022/01/25 02:40:49;;;;;;;15.53;9.40;;;;;;;-3.89;54.98;101016.66;5058744;28;20728;-59
2022/01/25 02:43:17;;;;;;;18.27;11.10;;;;;;;-4.04;55.96;101015.19;5051711;28;20664;-60
2022/01/25 02:45:52;;;;;;;14.53;9.77;;;;;;;-4.05;56.08;101015.00;5051514;28;20257;-59
2022/01/25 02:48:30;;;;;;;16.20;11.40;;;;;;;-4.03;56.09;101011.00;5050670;28;20443;-59
2022/01/25 02:50:59;;;;;;;13.83;9.87;;;;;;;-3.92;56.43;101012.94;5051597;28;20571;-59
2022/01/25 02:53:26;;;;;;;12.77;9.80;;;;;;;-3.90;56.10;101008.97;5051171;28;20639;-59
2022/01/25 02:55:52;;;;;;;11.87;8.93;;;;;;;-4.06;56.55;101010.72;5050731;28;20193;-59
2022/01/25 02:58:19;;;;;;;22.77;8.57;;;;;;;-4.11;56.59;100997.72;5051469;28;20531;-59
2022/01/25 03:00:46;;;;;;;13.73;9.00;;;;;;;-4.09;57.04;101006.28;5055007;28;20279;-59
2022/01/25 03:03:14;;;;;;;12.43;8.60;;;;;;;-4.02;56.01;101007.78;5066189;28;20280;-59
2022/01/25 03:05:42;;;;;;;14.13;9.43;;;;;;;-4.01;56.14;101009.56;5071015;28;20196;-59
2022/01/25 03:08:12;;;;;;;12.60;9.33;;;;;;;-4.01;56.43;100997.88;5070475;28;20644;-58
2022/01/25 03:10:42;;;;;;;16.23;10.00;;;;;;;-4.04;56.26;100986.69;5068306;28;20191;-59
2022/01/25 03:13:14;;;;;;;12.10;8.97;;;;;;;-4.03;55.83;100986.81;5070482;28;20200;-59
2022/01/25 03:16:01;;;;;;;12.27;8.83;;;;;;;-4.62;55.37;100893.25;5070478;28;20175;-59
2022/01/25 03:18:44;;;;;;;13.93;9.10;;;;;;;-4.06;54.87;100983.09;5071020;28;20628;-59
2022/01/25 03:23:59;;;;;;;12.57;8.67;;;;;;;-4.07;55.22;100967.19;5070802;28;20199;-56
2022/01/25 03:26:26;;;;;;;12.63;8.73;;;;;;;-4.03;55.03;100965.84;5070074;28;20214;-55
2022/01/25 03:28:54;;;;;;;9.90;7.87;;;;;;;-4.01;54.25;100951.84;5070819;28;21114;-59
2022/01/25 03:31:21;;;;;;;12.43;7.97;;;;;;;-4.03;54.15;100948.28;5070913;28;20576;-59
2022/01/25 03:33:48;;;;;;;12.57;8.17;;;;;;;-3.94;53.52;100944.16;5070771;28;20208;-59
2022/01/25 03:36:15;;;;;;;12.67;8.10;;;;;;;-3.91;53.31;100942.81;5070610;28;20187;-55
2022/01/25 03:38:43;;;;;;;12.47;8.00;;;;;;;-3.88;53.10;100944.75;5070824;28;20200;-55
2022/01/25 03:41:14;;;;;;;12.77;8.80;;;;;;;-3.86;52.74;100940.75;5070437;28;20188;-55
2022/01/25 03:43:42;;;;;;;12.87;7.90;;;;;;;-3.86;52.38;100921.56;5070381;28;20195;-55
2022/01/25 03:46:14;;;;;;;11.03;7.57;;;;;;;-3.81;52.19;100921.97;5070118;28;20215;-55
2022/01/25 03:51:26;;;;;;;10.77;7.90;;;;;;;-3.83;51.59;100915.94;5070374;28;20190;-59
2022/01/25 03:53:53;;;;;;;9.73;7.33;;;;;;;-3.79;51.22;100916.34;5070294;28;20275;-59
2022/01/25 03:56:22;;;;;;;10.10;6.93;;;;;;;-3.85;51.62;100914.91;5064835;28;20582;-59
2022/01/25 03:58:50;;;;;;;10.10;7.10;;;;;;;-3.80;51.15;100911.22;5064990;28;20198;-60
2022/01/25 04:01:17;;;;;;;8.43;6.87;;;;;;;-3.73;50.78;100909.41;5070002;28;20401;-60
2022/01/25 04:03:51;;;;;;;9.70;7.03;;;;;;;-4.15;50.97;100834.22;5070054;28;20283;-59
2022/01/25 04:06:20;;;;;;;8.50;6.20;;;;;;;-3.79;51.03;100907.97;5069550;28;20643;-60
2022/01/25 04:08:47;;;;;;;9.37;7.20;;;;;;;-3.74;50.67;100896.72;5070513;28;20198;-59
2022/01/25 04:11:14;;;;;;;10.83;7.43;;;;;;;-4.00;51.63;100861.63;5070350;28;20197;-59
2022/01/25 04:13:43;;;;;;;8.73;6.67;;;;;;;-3.85;51.85;100898.22;5070141;28;20199;-58
2022/01/25 04:16:14;;;;;;;9.50;6.80;;;;;;;-3.84;51.68;100889.03;5069867;28;20186;-58
2022/01/25 04:24:41;;;;;;;7.73;6.83;;;;;;;-3.76;51.92;100893.16;5033406;28;20219;-59
2022/01/25 04:27:31;;;;;;;10.00;7.50;;;;;;;-3.82;51.85;100895.13;5007893;28;20257;-59
2022/01/25 04:30:00;;;;;;;10.23;7.77;;;;;;;-3.87;52.52;100884.63;5055399;28;20198;-60
2022/01/25 04:32:34;;;;;;;11.23;7.63;;;;;;;-3.81;52.61;100897.75;5069739;28;20279;-60
2022/01/25 04:35:12;;;;;;;9.77;7.27;;;;;;;-3.89;52.85;100891.13;5069722;28;20193;-58
2022/01/25 04:48:56;;;;;;;14.47;7.10;;;;;;;-3.80;52.22;100893.63;5069898;28;20215;-60
2022/01/25 04:51:40;;;;;;;10.63;7.93;;;;;;;-3.88;52.15;100887.00;5070184;28;20202;-60
2022/01/25 04:54:14;;;;;;;12.93;8.87;;;;;;;-3.85;52.52;100884.78;5068515;28;20529;-60
2022/01/25 04:56:48;;;;;;;9.90;8.30;;;;;;;-3.82;52.49;100885.06;5069859;28;20188;-59
2022/01/25 04:59:22;;;;;;;9.30;8.00;;;;;;;-3.81;52.23;100884.31;5069863;28;20195;-58
2022/01/25 05:01:53;;;;;;;10.47;7.37;;;;;;;-3.83;52.11;100878.28;5069810;28;20245;-59
2022/01/25 05:04:25;;;;;;;12.97;8.53;;;;;;;-4.10;52.66;100853.97;5069695;28;20289;-59
2022/01/25 05:06:56;;;;;;;11.90;7.37;;;;;;;-3.95;52.32;100884.63;5069590;28;20323;-59
2022/01/25 05:09:23;;;;;;;13.83;8.00;;;;;;;-3.99;52.58;100885.09;5069345;28;20736;-55
2022/01/25 05:11:50;;;;;;;13.03;10.10;;;;;;;-4.11;52.66;100879.78;5069595;28;20200;-55
2022/01/25 05:14:22;;;;;;;13.47;8.80;;;;;;;-4.20;52.62;100877.28;5069374;28;20196;-55
2022/01/25 05:16:54;;;;;;;11.10;7.60;;;;;;;-4.19;52.49;100884.09;5071243;28;20713;-55
2022/01/25 05:22:06;;;;;;;11.83;7.17;;;;;;;-4.18;52.25;100884.97;5071210;28;20700;-55
2022/01/25 05:24:36;;;;;;;9.63;7.07;;;;;;;-4.15;52.30;100874.34;5072935;28;20202;-54
2022/01/25 05:27:04;;;;;;;10.00;7.10;;;;;;;-4.19;52.99;100884.09;5073106;28;20216;-54
2022/01/25 05:29:31;;;;;;;12.80;8.00;;;;;;;-4.10;52.88;100883.19;5073240;28;20661;-53
2022/01/25 05:31:59;;;;;;;12.67;7.63;;;;;;;-4.08;52.56;100894.25;5072921;28;20287;-55
2022/01/25 05:34:27;;;;;;;13.63;8.33;;;;;;;-4.35;52.69;100849.88;5072667;28;20187;-58
2022/01/25 05:36:54;;;;;;;12.70;7.60;;;;;;;-4.05;52.47;100895.44;5073092;28;20212;-60
2022/01/25 05:39:26;;;;;;;12.17;8.27;;;;;;;-4.33;52.28;100844.25;5072974;28;20194;-59
2022/01/25 05:41:58;;;;;;;21.80;9.20;;;;;;;-4.00;52.82;100908.41;5072896;28;20190;-55
2022/01/25 05:44:38;;;;;;;14.00;8.17;;;;;;;-3.99;51.84;100900.16;5073001;28;20197;-54
2022/01/25 05:47:07;;;;;;;12.10;8.43;;;;;;;-3.98;52.24;100899.44;5072927;28;20230;-54
2022/01/25 05:49:37;;;;;;;8.93;7.90;;;;;;;-3.93;51.71;100906.66;5073065;28;20209;-54
2022/01/25 05:52:05;;;;;;;11.33;8.10;;;;;;;-3.87;50.67;100911.38;5072973;28;20194;-54
2022/01/25 05:54:32;;;;;;;9.97;7.13;;;;;;;-3.80;50.56;100906.19;5072811;28;20190;-55
2022/01/25 05:56:59;;;;;;;8.93;7.47;;;;;;;-3.70;49.38;100911.31;5072730;28;20601;-55
2022/01/25 05:59:26;;;;;;;10.97;7.57;;;;;;;-3.73;49.45;100916.06;5072690;28;20679;-54
2022/01/25 06:01:53;;;;;;;14.27;7.70;;;;;;;-3.66;49.69;100904.25;5072576;28;20207;-55
2022/01/25 06:04:23;;;;;;;13.23;8.00;;;;;;;-3.66;49.89;100904.25;5072530;28;20686;-54
2022/01/25 06:06:50;;;;;;;11.93;7.73;;;;;;;-3.71;49.04;100882.81;5072801;28;20225;-54
2022/01/25 06:09:17;;;;;;;13.47;7.40;;;;;;;-3.52;48.32;100889.56;5072781;28;20183;-54
2022/01/25 06:11:44;;;;;;;9.13;6.80;;;;;;;-3.44;47.89;100894.56;5072343;28;20192;-55
2022/01/25 06:14:11;;;;;;;9.27;6.93;;;;;;;-3.46;48.02;100893.50;5072441;28;20200;-55
2022/01/25 06:16:38;;;;;;;13.37;7.53;;;;;;;-3.45;47.81;100890.28;5072260;28;20188;-56
2022/01/25 06:19:05;;;;;;;9.03;6.93;;;;;;;-3.43;47.57;100881.25;5071985;28;20278;-55
2022/01/25 06:21:33;;;;;;;11.03;7.37;;;;;;;-3.39;47.29;100895.88;5066258;28;20231;-55
2022/01/25 06:24:00;;;;;;;8.97;6.93;;;;;;;-3.38;46.67;100899.28;5071530;28;20198;-54
2022/01/25 06:26:27;;;;;;;10.13;7.83;;;;;;;-3.37;47.02;100883.44;5068774;28;20191;-54
2022/01/25 06:28:54;;;;;;;8.70;6.93;;;;;;;-3.22;46.90;100887.38;5070795;28;20182;-55
2022/01/25 06:31:21;;;;;;;12.10;7.73;;;;;;;-3.23;47.13;100880.56;5070830;28;20630;-55
2022/01/25 06:33:48;;;;;;;13.63;8.90;;;;;;;-3.13;46.92;100880.69;5071422;28;20744;-54
2022/01/25 06:36:16;;;;;;;13.33;8.23;;;;;;;-3.00;46.89;100888.59;5071847;28;20278;-55
2022/01/25 06:38:44;;;;;;;14.17;8.07;;;;;;;-3.01;46.96;100882.69;5066865;28;20278;-55
2022/01/25 06:41:12;;;;;;;11.60;8.80;;;;;;;-3.02;47.20;100887.56;5066468;28;20281;-55
2022/01/25 06:43:39;;;;;;;14.23;8.63;;;;;;;-3.25;46.66;100834.34;5063247;28;20208;-56
2022/01/25 06:46:07;;;;;;;14.07;9.50;;;;;;;-2.94;47.07;100873.19;5067424;28;20309;-54
2022/01/25 06:48:33;;;;;;;15.57;8.57;;;;;;;-2.88;47.21;100874.63;5066543;28;20188;-55
2022/01/25 06:51:00;;;;;;;11.73;8.00;;;;;;;-2.92;47.02;100867.56;5057417;28;20201;-55
2022/01/25 06:53:28;;;;;;;13.37;9.47;;;;;;;-2.83;47.13;100872.53;5071221;28;20551;-55
2022/01/25 06:55:56;;;;;;;13.10;8.83;;;;;;;-2.81;46.77;100881.09;5070739;28;20181;-54
2022/01/25 06:58:23;;;;;;;12.17;8.90;;;;;;;-2.75;46.64;100867.47;5067109;28;20199;-55
2022/01/25 07:00:50;;;;;;;16.83;8.83;;;;;;;-2.74;46.31;100871.72;5065911;28;20198;-55
2022/01/25 07:03:17;;;;;;;14.77;8.73;;;;;;;-2.71;47.05;100878.66;5070236;28;20197;-55
2022/01/25 07:05:44;;;;;;;17.10;8.33;;;;;;;-2.68;46.67;100876.41;5067743;28;20194;-55
2022/01/25 07:08:11;;;;;;;12.33;7.70;;;;;;;-2.74;47.24;100875.84;5069859;28;20604;-55
2022/01/25 07:10:38;;;;;;;11.17;8.43;;;;;;;-2.74;47.38;100879.25;5069678;28;20198;-54
2022/01/25 07:13:06;;;;;;;15.17;8.83;;;;;;;-2.69;47.59;100884.72;5069994;28;20180;-54
2022/01/25 07:15:33;;;;;;;13.37;9.47;;;;;;;-2.62;47.69;100887.94;5070286;28;20635;-54
2022/01/25 07:18:00;;;;;;;12.57;8.90;;;;;;;-2.49;48.13;100890.78;5069941;28;20431;-55
2022/01/25 07:20:27;;;;;;;18.27;11.80;;;;;;;-2.42;47.77;100882.16;5070317;28;20194;-54
2022/01/25 07:22:54;;;;;;;19.93;10.83;;;;;;;-2.44;47.66;100882.00;5070494;28;20302;-54
2022/01/25 07:25:21;;;;;;;13.40;9.57;;;;;;;-2.43;47.88;100877.88;5070418;28;20194;-54
2022/01/25 07:27:48;;;;;;;19.10;10.40;;;;;;;-2.33;48.38;100872.88;5070281;28;20694;-55
2022/01/25 07:30:17;;;;;;;14.00;9.70;;;;;;;-2.34;48.11;100876.19;5070283;28;20200;-54
2022/01/25 07:32:44;;;;;;;15.07;9.30;;;;;;;-2.26;48.36;100882.75;5070671;28;20670;-54
2022/01/25 07:35:11;;;;;;;12.87;8.33;;;;;;;-2.20;47.62;100887.47;5070918;28;20569;-54
2022/01/25 07:37:38;;;;;;;15.43;10.50;;;;;;;-2.21;47.86;100870.56;5070800;28;20193;-54
2022/01/25 07:40:06;;;;;;;15.80;11.00;;;;;;;-2.14;47.29;100885.50;5070022;28;20201;-55
2022/01/25 07:42:36;;;;;;;17.33;10.23;;;;;;;-2.14;47.03;100890.53;5070545;28;20201;-54
2022/01/25 07:45:08;;;;;;;14.47;9.33;;;;;;;-2.05;46.90;100881.22;5070706;28;20308;-54
2022/01/25 07:47:37;;;;;;;17.23;10.07;;;;;;;-1.96;47.51;100880.41;5070518;28;20620;-54
2022/01/25 07:50:05;;;;;;;18.40;10.13;;;;;;;-1.98;46.87;100879.38;5070445;28;20278;-54
2022/01/25 07:52:32;;;;;;;14.73;9.80;;;;;;;-1.95;47.11;100881.31;5070070;28;20195;-55
2022/01/25 07:54:59;;;;;;;15.87;11.37;;;;;;;-1.83;46.71;100867.25;5070156;28;20191;-54
2022/01/25 07:57:26;;;;;;;14.73;11.17;;;;;;;-1.74;46.58;100865.53;5070379;28;20571;-54
2022/01/25 07:59:53;;;;;;;23.10;14.77;;;;;;;-1.73;45.79;100877.34;5069685;28;20570;-54
2022/01/25 08:02:21;;;;;;;23.90;14.03;;;;;;;-1.69;45.95;100869.31;5070079;28;20286;-54
2022/01/25 08:04:50;;;;;;;22.63;13.87;;;;;;;-1.64;45.30;100872.22;5069908;28;20233;-55
2022/01/25 08:07:17;;;;;;;19.83;12.93;;;;;;;-1.54;45.45;100869.75;5070098;28;20676;-54
2022/01/25 08:09:44;;;;;;;13.40;10.30;;;;;;;-1.59;45.14;100860.91;5069889;28;20202;-55
2022/01/25 08:12:12;;;;;;;16.47;10.77;;;;;;;-1.61;45.60;100869.97;5069941;28;20191;-54
2022/01/25 08:14:41;;;;;;;13.40;9.87;;;;;;;-1.58;45.67;100863.56;5068676;28;20226;-56
2022/01/25 08:17:08;;;;;;;17.58;12.70;;;;;;;-1.45;45.90;100860.44;5060209;28;20490;-55
2022/01/25 08:19:35;;;;;;;14.30;10.00;;;;;;;-1.27;44.83;100864.53;5067650;28;20199;-55
2022/01/25 08:22:04;;;;;;;13.20;9.43;;;;;;;-1.14;44.78;100868.94;5068837;28;20238;-56
2022/01/25 08:24:31;;;;;;;13.57;9.47;;;;;;;-1.07;44.18;100856.97;5069138;28;20645;-55
2022/01/25 08:26:58;;;;;;;14.93;8.43;;;;;;;-1.05;43.78;100854.59;5068429;28;20314;-55
2022/01/25 08:29:24;;;;;;;17.27;10.10;;;;;;;-1.02;43.85;100858.25;5065711;28;20184;-55
2022/01/25 08:31:51;;;;;;;13.30;9.63;;;;;;;-1.05;43.95;100870.63;5068789;28;20199;-54
2022/01/25 08:34:18;;;;;;;17.97;10.00;;;;;;;-1.10;43.91;100865.94;5066906;28;20191;-54
2022/01/25 08:36:45;;;;;;;14.47;10.57;;;;;;;-1.23;44.96;100853.94;5049820;28;20287;-54
2022/01/25 08:39:14;;;;;;;16.50;10.80;;;;;;;-1.26;45.22;100846.09;5049900;28;20636;-55
2022/01/25 08:41:41;;;;;;;19.40;10.63;;;;;;;-1.12;45.22;100843.09;5049510;28;20200;-55
2022/01/25 08:44:08;;;;;;;14.67;10.30;;;;;;;-1.01;44.43;100838.94;5049575;28;20283;-54
2022/01/25 08:46:35;;;;;;;14.37;10.57;;;;;;;-0.95;44.70;100841.97;5049366;28;20234;-55
2022/01/25 08:49:02;;;;;;;15.03;10.60;;;;;;;-1.24;44.66;100796.72;5049415;28;20211;-55
2022/01/25 08:51:28;;;;;;;16.27;10.97;;;;;;;-0.95;44.11;100822.69;5051258;28;20606;-58
2022/01/25 08:53:56;;;;;;;16.73;12.40;;;;;;;-0.82;44.89;100824.56;5053819;28;20219;-60
2022/01/25 08:56:24;;;;;;;16.25;12.07;;;;;;;-0.93;43.73;100820.28;5053223;28;20434;-59
2022/01/25 08:58:51;;;;;;;16.60;11.63;;;;;;;-0.87;44.25;100819.16;5053699;28;20192;-60
2022/01/25 09:01:18;;;;;;;16.37;11.40;;;;;;;-0.81;43.94;100811.19;5053636;28;20192;-61
2022/01/25 09:03:45;;;;;;;17.70;11.67;;;;;;;-0.71;44.53;100814.59;5053581;28;20192;-60
2022/01/25 09:06:12;;;;;;;17.80;12.13;;;;;;;-0.68;44.16;100814.84;5053435;28;20207;-59
2022/01/25 09:08:39;;;;;;;18.57;11.67;;;;;;;-0.56;44.36;100799.81;5053709;28;20199;-59
2022/01/25 09:11:07;;;;;;;16.13;11.03;;;;;;;-0.49;43.61;100786.03;5053389;28;20188;-59
2022/01/25 09:13:36;;;;;;;17.27;12.85;;;;;;;-0.33;43.71;100797.47;5052951;28;20906;-60
2022/01/25 09:16:03;;;;;;;20.83;12.17;;;;;;;-0.30;43.32;100790.16;5053343;28;20196;-59
2022/01/25 09:18:31;;;;;;;17.30;11.40;;;;;;;-0.12;43.16;100791.63;5053670;28;20278;-60
2022/01/25 09:20:58;;;;;;;16.47;11.77;;;;;;;-0.15;42.28;100780.38;5053117;28;20279;-59
2022/01/25 09:23:26;;;;;;;19.70;12.00;;;;;;;-0.23;42.45;100783.94;5053555;28;20730;-60
2022/01/25 09:25:55;;;;;;;15.30;12.27;;;;;;;-0.08;43.03;100772.50;5053390;28;20257;-60
2022/01/25 09:28:22;;;;;;;15.83;11.33;;;;;;;-0.11;42.46;100769.78;5069463;28;20223;-60
2022/01/25 09:30:50;;;;;;;18.77;12.13;;;;;;;-0.22;42.29;100763.00;5072857;28;20192;-60
2022/01/25 09:33:17;;;;;;;20.50;10.83;;;;;;;-0.10;42.88;100753.84;5072721;28;20547;-60
2022/01/25 09:35:45;;;;;;;19.07;12.37;;;;;;;0.09;42.49;100744.38;5072824;28;20190;-60
2022/01/25 09:38:12;;;;;;;17.70;11.33;;;;;;;0.20;41.91;100735.09;5070569;28;20210;-60
2022/01/25 09:40:39;;;;;;;15.47;11.67;;;;;;;0.27;42.04;100745.81;5072497;28;20188;-60
2022/01/25 09:43:07;;;;;;;17.63;11.40;;;;;;;0.29;41.20;100733.28;5072419;28;20183;-60
2022/01/25 09:45:35;;;;;;;17.77;11.70;;;;;;;0.20;41.73;100741.03;5072467;28;20192;-60
2022/01/25 09:48:04;;;;;;;15.40;10.90;;;;;;;0.26;41.54;100735.56;5072347;28;20298;-61
2022/01/25 09:50:32;;;;;;;15.33;11.50;;;;;;;0.34;40.80;100727.81;5072910;28;20195;-60
2022/01/25 09:53:00;;;;;;;26.27;15.03;;;;;;;0.36;41.81;100716.16;5072700;28;20199;-59
2022/01/25 09:55:31;;;;;;;30.23;15.47;;;;;;;0.44;41.06;100719.31;5072912;28;20271;-60
2022/01/25 09:57:57;;;;;;;29.17;17.17;;;;;;;0.19;41.16;100683.72;5072844;28;20712;-60
2022/01/25 10:00:28;;;;;;;22.87;13.83;;;;;;;0.40;41.33;100709.69;5072569;28;20192;-59
2022/01/25 10:03:03;;;;;;;14.57;11.47;;;;;;;0.48;40.37;100713.69;5071526;28;20565;-58
2022/01/25 10:05:35;;;;;;;21.33;11.43;;;;;;;0.45;40.01;100714.34;5072384;28;20570;-58
2022/01/25 10:08:05;;;;;;;18.20;12.17;;;;;;;0.54;39.77;100716.69;5072583;28;20215;-58
2022/01/25 10:10:34;;;;;;;17.03;12.00;;;;;;;0.59;40.20;100693.50;5072599;28;20344;-59
2022/01/25 10:13:10;;;;;;;19.20;12.93;;;;;;;0.62;40.18;100699.53;5072458;28;20195;-59
2022/01/25 10:15:38;;;;;;;21.67;13.80;;;;;;;0.66;40.12;100683.84;5072475;28;20278;-59
2022/01/25 10:18:05;;;;;;;18.23;12.30;;;;;;;0.65;39.98;100690.56;5072050;28;20194;-58
2022/01/25 10:20:36;;;;;;;20.93;13.23;;;;;;;0.75;39.82;100674.38;5070779;28;20665;-59
2022/01/25 10:23:06;;;;;;;19.47;10.63;;;;;;;0.73;39.20;100675.94;5070754;28;20237;-58
2022/01/25 10:25:37;;;;;;;20.17;11.63;;;;;;;0.77;38.30;100676.25;5072195;28;20213;-58
2022/01/25 10:28:10;;;;;;;18.30;11.37;;;;;;;0.79;38.34;100667.16;5071724;28;20212;-58
2022/01/25 10:30:41;;;;;;;17.40;10.87;;;;;;;0.90;37.80;100667.94;5072104;28;20566;-58
2022/01/25 10:33:28;;;;;;;15.47;10.60;;;;;;;0.97;37.07;100657.47;5072031;28;20203;-58
2022/01/25 10:35:58;;;;;;;14.83;9.80;;;;;;;0.99;36.88;100648.38;5071797;28;20234;-59
2022/01/25 10:38:28;;;;;;;19.07;9.00;;;;;;;1.00;36.23;100662.75;5071461;28;20274;-58
2022/01/25 10:41:01;;;;;;;12.60;8.50;;;;;;;0.93;35.28;100656.41;5071645;28;20192;-58
2022/01/25 10:43:30;;;;;;;10.87;8.50;;;;;;;0.87;35.99;100655.06;5071885;28;20317;-59
2022/01/25 10:46:12;;;;;;;15.30;10.03;;;;;;;0.92;36.02;100648.69;5071708;28;20662;-58
2022/01/25 10:48:42;;;;;;;14.43;9.23;;;;;;;0.92;35.88;100641.97;5071629;28;20269;-59
2022/01/25 10:51:12;;;;;;;16.83;11.40;;;;;;;1.04;35.97;100634.41;5070666;28;20528;-59
2022/01/25 10:53:40;;;;;;;13.90;10.70;;;;;;;1.15;35.53;100628.44;5071798;28;20203;-59
2022/01/25 10:56:08;;;;;;;14.40;9.10;;;;;;;1.27;35.48;100624.22;5069108;28;20283;-59
2022/01/25 10:58:38;;;;;;;13.93;9.97;;;;;;;1.27;35.77;100621.69;5068295;28;20199;-59
2022/01/25 11:01:06;;;;;;;13.27;9.57;;;;;;;1.31;35.55;100608.50;5065206;28;20199;-60
2022/01/25 11:03:35;;;;;;;13.83;9.43;;;;;;;1.41;35.29;100615.97;5067873;28;20196;-59
2022/01/25 11:06:12;;;;;;;12.77;9.47;;;;;;;1.24;34.56;100606.28;5071335;28;20195;-59
2022/01/25 11:08:40;;;;;;;12.47;9.27;;;;;;;1.29;34.81;100606.63;5069100;28;20222;-59
2022/01/25 11:11:10;;;;;;;18.23;10.37;;;;;;;1.31;35.57;100590.78;5071091;28;20219;-59
2022/01/25 11:13:40;;;;;;;13.30;9.07;;;;;;;1.24;35.04;100588.56;5070651;28;20215;-59
2022/01/25 11:16:09;;;;;;;13.37;10.17;;;;;;;1.31;35.37;100590.78;5070650;28;20198;-59
2022/01/25 11:18:36;;;;;;;15.90;9.03;;;;;;;1.33;35.66;100580.75;5070661;28;20191;-59
2022/01/25 11:21:06;;;;;;;12.77;8.90;;;;;;;1.37;35.18;100563.38;5068646;28;20206;-57
2022/01/25 11:23:37;;;;;;;13.60;9.70;;;;;;;1.48;34.52;100575.13;5068002;28;20197;-59
2022/01/25 11:26:05;;;;;;;12.70;8.70;;;;;;;1.49;34.09;100568.38;5070361;28;20184;-59
2022/01/25 11:28:33;;;;;;;16.97;8.60;;;;;;;1.41;33.70;100562.78;5067447;28;20689;-59
2022/01/25 11:31:03;;;;;;;14.60;8.80;;;;;;;1.47;34.05;100549.66;5070424;28;20205;-58
2022/01/25 11:33:32;;;;;;;11.63;8.60;;;;;;;1.58;33.99;100552.16;5066958;28;20633;-58
2022/01/25 11:36:00;;;;;;;12.97;8.50;;;;;;;1.75;34.35;100559.28;5066605;28;20665;-59
2022/01/25 11:38:40;;;;;;;12.57;9.43;;;;;;;1.90;34.35;100554.34;5070105;28;20214;-58
2022/01/25 11:41:10;;;;;;;11.70;8.80;;;;;;;1.93;33.48;100562.13;5069265;28;20195;-59
2022/01/25 11:43:37;;;;;;;15.80;10.13;;;;;;;1.90;33.42;100550.91;5070225;28;20203;-59
2022/01/25 11:46:08;;;;;;;13.10;9.47;;;;;;;1.88;33.84;100547.41;5070856;28;20202;-58
2022/01/25 11:48:39;;;;;;;12.13;9.03;;;;;;;2.05;33.65;100541.81;5070553;28;20216;-59
2022/01/25 11:51:18;;;;;;;15.90;11.25;;;;;;;2.01;33.20;100539.84;5069707;28;20444;-59
2022/01/25 11:53:49;;;;;;;12.90;10.57;;;;;;;2.08;33.37;100540.38;5070317;28;20191;-59
2022/01/25 11:56:17;;;;;;;11.33;8.97;;;;;;;2.15;32.29;100539.97;5070331;28;20685;-58
2022/01/25 11:58:54;;;;;;;14.13;9.10;;;;;;;2.22;32.54;100531.13;5070383;28;20677;-59
2022/01/25 12:01:24;;;;;;;10.07;7.63;;;;;;;2.20;32.78;100525.06;5070568;28;20199;-58
2022/01/25 12:03:56;;;;;;;11.50;7.97;;;;;;;2.30;32.61;100529.97;5070135;28;20233;-58
2022/01/25 12:06:27;;;;;;;10.37;8.80;;;;;;;2.23;32.88;100530.34;5070351;28;20282;-58
2022/01/25 12:09:14;;;;;;;13.13;9.07;;;;;;;2.04;32.53;100520.66;5069441;28;20216;-58
2022/01/25 12:11:45;;;;;;;14.13;8.57;;;;;;;2.13;32.70;100522.91;5069943;28;20199;-58
2022/01/25 12:14:24;;;;;;;12.90;8.73;;;;;;;2.12;32.92;100503.41;5069840;28;20681;-59
2022/01/25 12:16:54;;;;;;;16.50;9.30;;;;;;;2.20;33.16;100509.84;5070332;28;20278;-60
2022/01/25 12:19:32;;;;;;;14.13;9.83;;;;;;;2.32;33.07;100508.13;5070473;28;20218;-58
2022/01/25 12:22:08;;;;;;;10.33;7.93;;;;;;;2.38;31.73;100506.00;5069190;28;20223;-59
2022/01/25 12:24:51;;;;;;;10.83;8.30;;;;;;;2.41;32.18;100507.84;5068928;28;20191;-58
2022/01/25 12:27:23;;;;;;;10.77;7.13;;;;;;;2.39;31.40;100508.63;5069424;28;20199;-58
2022/01/25 12:30:00;;;;;;;11.37;8.30;;;;;;;2.32;31.62;100503.06;5069954;28;20203;-58
2022/01/25 12:32:30;;;;;;;11.83;8.57;;;;;;;2.34;31.35;100499.84;5074488;28;20705;-58
2022/01/25 12:35:08;;;;;;;11.50;7.87;;;;;;;2.37;31.75;100496.63;5069545;28;20253;-59
2022/01/25 12:38:17;;;;;;;11.57;8.73;;;;;;;2.37;32.13;100489.91;5062637;28;20195;-59
2022/01/25 12:40:52;;;;;;;11.90;8.33;;;;;;;2.44;31.64;100483.56;5049371;28;20202;-59
2022/01/25 12:43:23;;;;;;;9.57;7.60;;;;;;;2.37;31.20;100487.34;5049769;28;20275;-58